Meteo

Meteo


Dettagli e Storico

Webcam

Webcam in aeroporto – Aggiornata ogni minuto

Osservatorio Meteorologico Cocomaro di Cona – Ferrara

NOAA IMAGE

NOAA

Powerd by MEEO S.r.l.

Windy

METAR

Aviation Digital Data Service (ADDS)

Output produced by METARs form (1356 UTC 17 December 2018)
found at http://www.aviationweather.gov/metar/data/
 

METAR text: LIPF 171255Z /////KT 1500 BR BKN080 02/01 Q1020 RMK BKN
VIS MIN 1500
Conditions at: LIPF
(FERRARA (AUT) , IT) observed 1255 UTC 17 December 2018
Temperature: 2.0°C (36°F)
Dewpoint: 1.0°C (34°F) [RH = 93%]
Pressure (altimeter): 30.12 inches Hg (1020.0 mb)
Winds: missing
Visibility: 0.93 miles (1.50 km)
Ceiling: 8000 feet AGL
Clouds: broken clouds at 8000 feet AGL
Weather: BR  (mist)

METAR text: LIPE 171350Z 26006KT 9999 SCT025 03/01 Q1022
Conditions at: LIPE
(BOLOGNA/BORGO (A, IT) observed 1350 UTC 17 December 2018
Temperature: 3.0°C (37°F)
Dewpoint: 1.0°C (34°F) [RH = 87%]
Pressure (altimeter): 30.18 inches Hg (1022.0 mb)
Winds: from the W (260 degrees) at 7 MPH (6 knots; 3.1 m/s)
Visibility: 6 or more miles (10+ km)
Ceiling: at least 12,000 feet AGL
Clouds: scattered clouds at 2500 feet AGL
Weather: no significant weather observed at this time

Forecast for: LIPE (BOLOGNA/BORGO (A, IT)
Text: TAF LIPE 171100Z 1712/1812 27009KT 4000 BR SCT010 BKN030
Forecast period: 1200 to 1300 UTC 17 December 2018
Forecast type: FROM: standard forecast or significant change
Winds: from the W (270 degrees) at 10 MPH (9 knots; 4.6 m/s)
Visibility: 2.49 miles (4.01 km)
Ceiling: 3000 feet AGL
Clouds: scattered clouds at 1000 feet AGL
broken clouds at 3000 feet AGL
Weather: BR  (mist)
Text: BECMG 1713/1715 CAVOK
Forecast period: 1300 UTC 17 December 2018 to 1200 UTC 18 December 2018
Forecast type: BECOMING: Conditions expected to become as follows by 1500 UTC 17 December 2018
Winds: from the W (270 degrees) at 10 MPH (9 knots; 4.6 m/s)
Visibility: 6 or more miles 10+ km)
Ceiling: unknown
Clouds: missing
Weather: NSW  (no significant weather)

METAR text: LIPX 171350Z 22006KT 9000 NSC 08/01 Q1021
Conditions at: LIPX
(VILLAFRANCA(CV/M, IT) observed 1350 UTC 17 December 2018
Temperature: 8.0°C (46°F)
Dewpoint: 1.0°C (34°F) [RH = 61%]
Pressure (altimeter): 30.15 inches Hg (1021.0 mb)
Winds: from the SW (220 degrees) at 7 MPH (6 knots; 3.1 m/s)
Visibility: 6 miles ( 9 km)
Ceiling: at least 12,000 feet AGL
Clouds: sky clear below 12,000 feet AGL
Weather: no significant weather observed at this time

Forecast for: LIPX (VILLAFRANCA(CV/M, IT)
Text: TAF LIPX 171100Z 1712/1721 25008KT 8000 SCT060
Forecast period: 1200 to 2100 UTC 17 December 2018
Forecast type: FROM: standard forecast or significant change
Winds: from the WSW (250 degrees) at 9 MPH (8 knots; 4.1 m/s)
Visibility: 5 miles (8 km)
Ceiling: at least 12,000 feet AGL
Clouds: scattered clouds at 6000 feet AGL
Weather: no significant weather forecast for this period

METAR text: LIPZ 171350Z 01006KT CAVOK 08/M01 Q1020 NOSIG
Conditions at: LIPZ
(VENEZIA/TESSERA , IT) observed 1350 UTC 17 December 2018
Temperature: 8.0°C (46°F)
Dewpoint: -1.0°C (30°F) [RH = 53%]
Pressure (altimeter): 30.12 inches Hg (1020.0 mb)
Winds: from the N (10 degrees) at 7 MPH (6 knots; 3.1 m/s)
Visibility: 6 or more miles (10+ km)
Ceiling: ceiling and visibility are OK
Clouds: unknown
Weather: no significant weather observed at this time

Forecast for: LIPZ (VENEZIA/TESSERA , IT)
Text: TAF LIPZ 171100Z 1712/1818 VRB05KT 9999 SCT070
Forecast period: 1200 UTC 17 December 2018 to 1800 UTC 18 December 2018
Forecast type: FROM: standard forecast or significant change
Winds: variable direction winds at 6 MPH (5 knots; 2.6 m/s)
Visibility: 6 or more miles 10+ km)
Ceiling: at least 12,000 feet AGL
Clouds: scattered clouds at 7000 feet AGL
Weather: no significant weather forecast for this period